Terminal Aerodrome Forecast
Issued by NWS

Current Version | Previous Version | Text Only | Print | Product List | Glossary Off
Versions: 1 2 3 4 5 6 7 8 9 10 11 12 13 14

460
FTUS44 KCRP 200538
TAFLRD
TAF
KLRD 200538Z 2006/2106 VRB06KT P6SM SKC
     FM201200 VRB04KT 6SM BR SCT025
      TEMPO 2012/2016 2SM BR BKN025
     FM201800 VRB03KT P6SM SKC=

USA.gov is the U.S. government's official web portal to all federal, state and local government web resources and services.